createdAt,value
2017-01-29T00:00:20.969Z,944.8
2017-01-29T00:01:29.040Z,944.8
2017-01-29T00:02:37.125Z,944.8
2017-01-29T00:03:45.158Z,944.7
2017-01-29T00:04:53.244Z,944.7
2017-01-29T00:06:01.462Z,944.8
2017-01-29T00:07:09.430Z,944.8
2017-01-29T00:08:17.572Z,944.8
2017-01-29T00:09:25.611Z,944.8
2017-01-29T00:10:33.710Z,944.8
2017-01-29T00:11:41.804Z,944.8
2017-01-29T00:12:49.885Z,944.8
2017-01-29T00:13:58.038Z,944.8
2017-01-29T00:15:06.073Z,944.9
2017-01-29T00:16:14.263Z,944.9
2017-01-29T00:17:22.335Z,944.9
2017-01-29T00:18:30.344Z,944.9
2017-01-29T00:19:38.492Z,944.9
2017-01-29T00:20:46.526Z,945.0
2017-01-29T00:21:54.874Z,944.9
2017-01-29T00:23:02.720Z,945.0
2017-01-29T00:24:10.806Z,944.9
2017-01-29T00:25:18.947Z,944.9
2017-01-29T00:26:26.985Z,944.9
2017-01-29T00:27:35.077Z,945.0
2017-01-29T00:28:43.171Z,945.0
2017-01-29T00:29:51.266Z,945.0
2017-01-29T00:30:59.411Z,944.9
2017-01-29T00:32:07.442Z,944.9
2017-01-29T00:33:15.539Z,944.9
2017-01-29T00:34:23.640Z,944.8
2017-01-29T00:35:31.729Z,944.9
2017-01-29T00:36:40.122Z,944.8
2017-01-29T00:37:47.965Z,944.8
2017-01-29T00:38:55.997Z,944.8
2017-01-29T00:40:04.092Z,944.8
2017-01-29T00:41:12.176Z,944.8
2017-01-29T00:42:20.337Z,944.8
2017-01-29T00:43:28.358Z,944.8
2017-01-29T00:44:36.446Z,944.8
2017-01-29T00:45:44.539Z,944.7
2017-01-29T00:46:52.719Z,944.7
2017-01-29T00:48:00.942Z,944.7
2017-01-29T00:49:08.801Z,944.7
2017-01-29T00:50:16.903Z,944.7
2017-01-29T00:51:24.986Z,944.7
2017-01-29T00:52:33.070Z,944.8
2017-01-29T00:53:41.282Z,944.8
2017-01-29T00:54:49.255Z,944.8
2017-01-29T00:55:57.338Z,944.8
2017-01-29T00:57:05.432Z,944.8
2017-01-29T00:58:13.634Z,944.9
2017-01-29T00:59:21.673Z,944.9
2017-01-29T01:00:29.701Z,944.9
2017-01-29T01:01:37.790Z,944.9
2017-01-29T01:02:45.878Z,944.9
2017-01-29T01:03:53.970Z,944.8
2017-01-29T01:05:02.178Z,944.9
2017-01-29T01:06:10.515Z,944.9
2017-01-29T01:07:18.228Z,944.9
2017-01-29T01:08:26.327Z,944.9
2017-01-29T01:09:34.503Z,944.9
2017-01-29T01:10:42.565Z,944.8
2017-01-29T01:11:50.595Z,944.9
2017-01-29T01:12:58.687Z,944.9
2017-01-29T01:14:06.775Z,944.9
2017-01-29T01:15:14.862Z,944.9
2017-01-29T01:16:23.067Z,944.9
2017-01-29T01:17:31.041Z,944.9
2017-01-29T01:18:39.130Z,944.9
2017-01-29T01:19:47.294Z,944.9
2017-01-29T01:20:55.311Z,944.9
2017-01-29T01:22:03.457Z,944.9
2017-01-29T01:23:11.496Z,944.9
2017-01-29T01:24:19.576Z,944.9
2017-01-29T01:25:27.909Z,945.0
2017-01-29T01:26:35.760Z,944.9
2017-01-29T01:27:43.976Z,944.9
2017-01-29T01:28:51.943Z,944.9
2017-01-29T01:30:00.041Z,944.9
2017-01-29T01:31:08.118Z,945.0
2017-01-29T01:32:16.209Z,944.9
2017-01-29T01:33:24.366Z,944.9
2017-01-29T01:34:32.394Z,945.0
2017-01-29T01:35:40.600Z,945.0
2017-01-29T01:36:48.582Z,945.0
2017-01-29T01:37:56.668Z,945.0
2017-01-29T01:39:04.813Z,945.0
2017-01-29T01:40:12.848Z,945.0
2017-01-29T01:41:21.065Z,945.0
2017-01-29T01:42:29.030Z,945.0
2017-01-29T01:43:37.113Z,945.0
2017-01-29T01:44:45.259Z,945.0
2017-01-29T01:45:53.294Z,945.0
2017-01-29T01:47:01.380Z,945.0
2017-01-29T01:48:09.475Z,945.0
2017-01-29T01:49:17.560Z,945.0
2017-01-29T01:50:25.849Z,945.0
2017-01-29T01:51:33.861Z,945.0
2017-01-29T01:52:41.832Z,945.0
2017-01-29T01:53:49.917Z,945.0
2017-01-29T01:54:58.173Z,945.0
2017-01-29T01:56:06.224Z,945.0
2017-01-29T01:57:14.250Z,945.0
2017-01-29T01:58:23.281Z,945.0
2017-01-29T01:59:30.373Z,945.0
2017-01-29T02:00:38.468Z,945.0
2017-01-29T02:01:46.668Z,945.0
2017-01-29T02:02:54.641Z,945.0
2017-01-29T02:04:02.725Z,945.0
2017-01-29T02:05:10.817Z,945.0
2017-01-29T02:06:18.903Z,945.0
2017-01-29T02:07:27.109Z,945.0
2017-01-29T02:08:35.082Z,945.0
2017-01-29T02:09:43.173Z,945.0
2017-01-29T02:10:51.254Z,945.1
2017-01-29T02:11:59.374Z,945.0
2017-01-29T02:13:07.516Z,945.1
2017-01-29T02:14:15.516Z,945.0
2017-01-29T02:15:23.600Z,945.0
2017-01-29T02:16:31.696Z,945.0
2017-01-29T02:17:39.783Z,945.0
2017-01-29T02:18:47.927Z,945.0
2017-01-29T02:19:55.961Z,945.0
2017-01-29T02:21:04.050Z,945.0
2017-01-29T02:22:12.132Z,945.0
2017-01-29T02:23:20.385Z,945.1
2017-01-29T02:24:28.434Z,945.0
2017-01-29T02:25:36.400Z,945.1
2017-01-29T02:26:44.483Z,945.1
2017-01-29T02:27:52.571Z,945.1
2017-01-29T02:29:00.734Z,945.1
2017-01-29T02:30:08.805Z,945.1
2017-01-29T02:31:16.831Z,945.1
2017-01-29T02:32:24.930Z,945.0
2017-01-29T02:33:33.016Z,945.0
2017-01-29T02:34:41.240Z,945.1
2017-01-29T02:35:49.249Z,945.1
2017-01-29T02:36:57.276Z,945.1
2017-01-29T02:38:05.365Z,945.0
2017-01-29T02:39:13.452Z,945.1
2017-01-29T02:40:21.542Z,945.0
2017-01-29T02:41:29.757Z,945.0
2017-01-29T02:42:37.716Z,945.0
2017-01-29T02:43:45.807Z,945.1
2017-01-29T02:44:54.110Z,945.1
2017-01-29T02:46:02.037Z,945.1
2017-01-29T02:47:10.120Z,945.1
2017-01-29T02:48:18.154Z,945.1
2017-01-29T02:49:26.245Z,945.1
2017-01-29T02:50:34.337Z,945.1
2017-01-29T02:51:42.424Z,945.2
2017-01-29T02:52:50.639Z,945.1
2017-01-29T02:53:58.605Z,945.1
2017-01-29T02:55:06.689Z,945.2
2017-01-29T02:56:14.877Z,945.1
2017-01-29T02:57:22.866Z,945.2
2017-01-29T02:58:31.008Z,945.1
2017-01-29T02:59:39.043Z,945.2
2017-01-29T03:00:47.188Z,945.2
2017-01-29T03:01:55.215Z,945.2
2017-01-29T03:03:03.300Z,945.1
2017-01-29T03:04:11.515Z,945.2
2017-01-29T03:05:19.482Z,945.1
2017-01-29T03:06:27.615Z,945.2
2017-01-29T03:07:35.679Z,945.2
2017-01-29T03:08:43.748Z,945.2
2017-01-29T03:09:51.882Z,945.2
2017-01-29T03:11:00.078Z,945.2
2017-01-29T03:12:08.172Z,945.1
2017-01-29T03:13:16.096Z,945.2
2017-01-29T03:14:24.181Z,945.1
2017-01-29T03:15:32.329Z,945.1
2017-01-29T03:16:40.417Z,945.1
2017-01-29T03:17:48.451Z,945.1
2017-01-29T03:18:56.540Z,945.2
2017-01-29T03:20:04.622Z,945.2
2017-01-29T03:21:12.833Z,945.1
2017-01-29T03:22:20.908Z,945.1
2017-01-29T03:23:28.887Z,945.1
2017-01-29T03:24:36.979Z,945.1
2017-01-29T03:25:45.060Z,945.1
2017-01-29T03:26:53.206Z,945.1
2017-01-29T03:28:01.257Z,945.1
2017-01-29T03:29:09.324Z,945.1
2017-01-29T03:30:17.410Z,945.1
2017-01-29T03:31:25.496Z,945.1
2017-01-29T03:32:33.839Z,945.1
2017-01-29T03:33:41.824Z,945.1
2017-01-29T03:34:49.767Z,945.1
2017-01-29T03:35:57.850Z,945.1
2017-01-29T03:37:05.936Z,945.1
2017-01-29T03:38:14.137Z,945.1
2017-01-29T03:39:22.109Z,945.1
2017-01-29T03:40:30.198Z,945.1
2017-01-29T03:41:38.282Z,945.2
2017-01-29T03:42:46.375Z,945.2
2017-01-29T03:43:54.646Z,945.2
2017-01-29T03:45:02.548Z,945.1
2017-01-29T03:46:10.650Z,945.2
2017-01-29T03:47:18.734Z,945.2
2017-01-29T03:48:26.878Z,945.2
2017-01-29T03:49:34.958Z,945.1
2017-01-29T03:50:42.991Z,945.2
2017-01-29T03:51:51.079Z,945.1
2017-01-29T03:52:59.168Z,945.2
2017-01-29T03:54:07.253Z,945.2
2017-01-29T03:55:15.483Z,945.2
2017-01-29T03:56:23.432Z,945.2
2017-01-29T03:57:31.512Z,945.2
2017-01-29T03:58:39.610Z,945.2
2017-01-29T03:59:47.694Z,945.2
2017-01-29T04:00:55.873Z,945.2
2017-01-29T04:02:03.865Z,945.2
2017-01-29T04:03:11.958Z,945.2
2017-01-29T04:04:20.100Z,945.2
2017-01-29T04:05:28.204Z,945.2
2017-01-29T04:06:36.274Z,945.2
2017-01-29T04:07:44.303Z,945.3
2017-01-29T04:08:52.384Z,945.3
2017-01-29T04:10:00.480Z,945.3
2017-01-29T04:11:08.571Z,945.3
2017-01-29T04:12:16.775Z,945.3
2017-01-29T04:13:24.738Z,945.3
2017-01-29T04:14:32.828Z,945.3
2017-01-29T04:15:40.914Z,945.3
2017-01-29T04:16:49.094Z,945.3
2017-01-29T04:17:57.137Z,945.3
2017-01-29T04:19:05.172Z,945.3
2017-01-29T04:20:13.315Z,945.3
2017-01-29T04:21:21.344Z,945.3
2017-01-29T04:22:29.440Z,945.3
2017-01-29T04:23:37.645Z,945.3
2017-01-29T04:24:45.612Z,945.4
2017-01-29T04:25:53.699Z,945.4
2017-01-29T04:27:01.859Z,945.3
2017-01-29T04:28:09.927Z,945.3
2017-01-29T04:29:18.016Z,945.3
2017-01-29T04:30:26.054Z,945.3
2017-01-29T04:31:34.331Z,945.3
2017-01-29T04:32:42.223Z,945.3
2017-01-29T04:33:50.312Z,945.3
2017-01-29T04:34:58.453Z,945.2
2017-01-29T04:36:06.601Z,945.2
2017-01-29T04:37:14.569Z,945.3
2017-01-29T04:38:22.721Z,945.3
2017-01-29T04:39:30.743Z,945.3
2017-01-29T04:40:38.883Z,945.3
2017-01-29T04:41:46.914Z,945.3
2017-01-29T04:42:55.001Z,945.4
2017-01-29T04:44:03.085Z,945.4
2017-01-29T04:45:11.177Z,945.4
2017-01-29T04:46:19.327Z,945.3
2017-01-29T04:47:27.364Z,945.4
2017-01-29T04:48:35.466Z,945.4
2017-01-29T04:49:43.647Z,945.4
2017-01-29T04:50:51.631Z,945.4
2017-01-29T04:51:59.776Z,945.5
2017-01-29T04:53:07.798Z,945.4
2017-01-29T04:54:15.897Z,945.5
2017-01-29T04:55:23.980Z,945.4
2017-01-29T04:56:32.066Z,945.5
2017-01-29T04:57:40.279Z,945.5
2017-01-29T04:58:48.246Z,945.5
2017-01-29T04:59:56.329Z,945.5
2017-01-29T05:01:04.410Z,945.5
2017-01-29T05:02:12.498Z,945.5
2017-01-29T05:03:20.705Z,945.5
2017-01-29T05:04:28.673Z,945.5
2017-01-29T05:05:36.759Z,945.5
2017-01-29T05:06:44.845Z,945.5
2017-01-29T05:07:52.985Z,945.5
2017-01-29T05:09:01.071Z,945.5
2017-01-29T05:10:09.154Z,945.5
2017-01-29T05:11:17.245Z,945.5
2017-01-29T05:12:25.275Z,945.5
2017-01-29T05:13:33.364Z,945.5
2017-01-29T05:14:41.578Z,945.6
2017-01-29T05:15:49.722Z,945.5
2017-01-29T05:16:57.618Z,945.6
2017-01-29T05:18:05.706Z,945.6
2017-01-29T05:19:13.797Z,945.6
2017-01-29T05:20:21.933Z,945.6
2017-01-29T05:21:29.968Z,945.6
2017-01-29T05:22:38.048Z,945.6
2017-01-29T05:23:46.188Z,945.6
2017-01-29T05:24:54.216Z,945.6
2017-01-29T05:26:02.491Z,945.6
2017-01-29T05:27:10.401Z,945.6
2017-01-29T05:28:18.488Z,945.7
2017-01-29T05:29:26.573Z,945.7
2017-01-29T05:30:34.658Z,945.7
2017-01-29T05:31:42.880Z,945.7
2017-01-29T05:32:50.830Z,945.7
2017-01-29T05:33:58.916Z,945.8
2017-01-29T05:35:07.004Z,945.8
2017-01-29T05:36:15.092Z,945.8
2017-01-29T05:37:23.366Z,945.8
2017-01-29T05:38:31.271Z,945.8
2017-01-29T05:39:39.412Z,945.8
2017-01-29T05:40:47.440Z,945.8
2017-01-29T05:41:55.525Z,945.8
2017-01-29T05:43:03.727Z,945.8
2017-01-29T05:44:11.696Z,945.8
2017-01-29T05:45:19.782Z,945.8
2017-01-29T05:46:27.867Z,945.8
2017-01-29T05:47:36.063Z,945.8
2017-01-29T05:48:44.119Z,945.9
2017-01-29T05:49:52.133Z,945.8
2017-01-29T05:51:00.217Z,945.9
2017-01-29T05:52:08.296Z,945.9
2017-01-29T05:53:16.393Z,945.9
2017-01-29T05:54:24.535Z,945.9
2017-01-29T05:55:32.618Z,945.9
2017-01-29T05:56:40.650Z,945.9
2017-01-29T05:57:48.737Z,945.9
2017-01-29T05:58:56.916Z,945.9
2017-01-29T06:00:05.026Z,945.9
2017-01-29T06:01:12.995Z,945.9
2017-01-29T06:02:21.083Z,945.9
2017-01-29T06:03:29.169Z,946.0
2017-01-29T06:04:37.275Z,946.0
2017-01-29T06:05:45.395Z,946.0
2017-01-29T06:06:53.424Z,946.0
2017-01-29T06:08:01.506Z,946.0
2017-01-29T06:09:09.754Z,946.0
2017-01-29T06:10:17.830Z,946.1
2017-01-29T06:11:25.818Z,946.1
2017-01-29T06:12:33.854Z,946.1
2017-01-29T06:13:41.939Z,946.1
2017-01-29T06:14:50.027Z,946.1
2017-01-29T06:15:58.168Z,946.1
2017-01-29T06:17:06.316Z,946.1
2017-01-29T06:18:14.281Z,946.1
2017-01-29T06:19:22.367Z,946.1
2017-01-29T06:20:30.633Z,946.1
2017-01-29T06:21:38.540Z,946.1
2017-01-29T06:22:46.687Z,946.1
2017-01-29T06:23:54.715Z,946.1
2017-01-29T06:25:02.815Z,946.1
2017-01-29T06:26:10.908Z,946.1
2017-01-29T06:27:19.050Z,946.2
2017-01-29T06:28:27.208Z,946.1
2017-01-29T06:29:35.165Z,946.1
2017-01-29T06:30:43.442Z,946.1
2017-01-29T06:31:51.407Z,946.2
2017-01-29T06:32:59.418Z,946.2
2017-01-29T06:34:07.559Z,946.2
2017-01-29T06:35:15.589Z,946.2
2017-01-29T06:36:23.673Z,946.2
2017-01-29T06:37:31.771Z,946.2
2017-01-29T06:38:39.853Z,946.2
2017-01-29T06:39:47.987Z,946.2
2017-01-29T06:40:56.023Z,946.2
2017-01-29T06:42:04.263Z,946.2
2017-01-29T06:43:12.308Z,946.2
2017-01-29T06:44:20.280Z,946.2
2017-01-29T06:45:28.420Z,946.2
2017-01-29T06:46:36.460Z,946.3
2017-01-29T06:47:44.551Z,946.3
2017-01-29T06:48:52.636Z,946.3
2017-01-29T06:50:00.721Z,946.2
2017-01-29T06:51:08.858Z,946.3
2017-01-29T06:52:16.975Z,946.3
2017-01-29T06:53:25.040Z,946.3
2017-01-29T06:54:33.055Z,946.3
2017-01-29T06:55:41.146Z,946.3
2017-01-29T06:56:49.289Z,946.3
2017-01-29T06:57:57.416Z,946.3
2017-01-29T06:59:05.524Z,946.3
2017-01-29T07:00:13.490Z,946.3
2017-01-29T07:01:21.578Z,946.4
2017-01-29T07:02:29.727Z,946.4
2017-01-29T07:03:37.756Z,946.4
2017-01-29T07:04:45.839Z,946.4
2017-01-29T07:05:53.980Z,946.4
2017-01-29T07:07:02.016Z,946.4
2017-01-29T07:08:10.162Z,946.4
2017-01-29T07:09:18.190Z,946.4
2017-01-29T07:10:26.282Z,946.4
2017-01-29T07:11:34.369Z,946.4
2017-01-29T07:12:42.457Z,946.4
2017-01-29T07:13:50.665Z,946.4
2017-01-29T07:14:58.747Z,946.4
2017-01-29T07:16:06.828Z,946.4
2017-01-29T07:17:14.802Z,946.4
2017-01-29T07:18:22.884Z,946.4
2017-01-29T07:19:31.032Z,946.4
2017-01-29T07:20:39.068Z,946.4
2017-01-29T07:21:47.152Z,946.5
2017-01-29T07:22:55.236Z,946.4
2017-01-29T07:24:03.322Z,946.4
2017-01-29T07:25:11.530Z,946.4
2017-01-29T07:26:19.501Z,946.4
2017-01-29T07:27:27.648Z,946.4
2017-01-29T07:28:35.676Z,946.4
2017-01-29T07:29:43.759Z,946.4
2017-01-29T07:30:51.896Z,946.4
2017-01-29T07:31:59.932Z,946.4
2017-01-29T07:33:08.021Z,946.4
2017-01-29T07:34:16.110Z,946.5
2017-01-29T07:35:24.206Z,946.5
2017-01-29T07:36:32.437Z,946.4
2017-01-29T07:37:40.373Z,946.5
2017-01-29T07:38:48.457Z,946.5
2017-01-29T07:39:56.547Z,946.5
2017-01-29T07:41:04.629Z,946.5
2017-01-29T07:42:12.970Z,946.5
2017-01-29T07:43:20.806Z,946.5
2017-01-29T07:44:28.894Z,946.5
2017-01-29T07:45:36.979Z,946.5
2017-01-29T07:46:45.188Z,946.4
2017-01-29T07:47:53.210Z,946.4
2017-01-29T07:49:01.250Z,946.4
2017-01-29T07:50:09.322Z,946.4
2017-01-29T07:51:17.418Z,946.4
2017-01-29T07:52:25.506Z,946.4
2017-01-29T07:53:33.818Z,946.4
2017-01-29T07:54:41.677Z,946.4
2017-01-29T07:55:49.765Z,946.4
2017-01-29T07:56:57.848Z,946.5
2017-01-29T07:58:05.936Z,946.4
2017-01-29T07:59:14.082Z,946.5
2017-01-29T08:00:22.113Z,946.5
2017-01-29T08:01:30.196Z,946.5
2017-01-29T08:02:38.405Z,946.5
2017-01-29T08:03:46.370Z,946.5
2017-01-29T08:04:54.518Z,946.4
2017-01-29T08:06:02.545Z,946.4
2017-01-29T08:07:10.643Z,946.4
2017-01-29T08:08:18.733Z,946.4
2017-01-29T08:09:26.813Z,946.4
2017-01-29T08:10:35.027Z,946.4
2017-01-29T08:11:42.991Z,946.4
2017-01-29T08:12:51.079Z,946.5
2017-01-29T08:13:59.168Z,946.4
2017-01-29T08:15:07.277Z,946.5
2017-01-29T08:16:15.406Z,946.5
2017-01-29T08:17:23.435Z,946.5
2017-01-29T08:18:31.642Z,946.5
2017-01-29T08:19:39.608Z,946.5
2017-01-29T08:20:47.691Z,946.5
2017-01-29T08:21:55.837Z,946.5
2017-01-29T08:23:03.878Z,946.5
2017-01-29T08:24:11.969Z,946.5
2017-01-29T08:25:20.100Z,946.5
2017-01-29T08:26:28.149Z,946.5
2017-01-29T08:27:36.291Z,946.5
2017-01-29T08:28:44.319Z,946.5
2017-01-29T08:29:52.475Z,946.5
2017-01-29T08:31:00.660Z,946.5
2017-01-29T08:32:08.581Z,946.4
2017-01-29T08:33:16.784Z,946.5
2017-01-29T08:34:24.818Z,946.5
2017-01-29T08:35:32.841Z,946.5
2017-01-29T08:36:40.972Z,946.5
2017-01-29T08:37:49.019Z,946.5
2017-01-29T08:38:57.232Z,946.5
2017-01-29T08:40:05.202Z,946.5
2017-01-29T08:41:13.606Z,946.5
2017-01-29T08:42:21.377Z,946.5
2017-01-29T08:43:29.463Z,946.5
2017-01-29T08:44:37.608Z,946.5
2017-01-29T08:45:45.642Z,946.5
2017-01-29T08:46:53.739Z,946.5
2017-01-29T08:48:01.829Z,946.5
2017-01-29T08:49:09.912Z,946.5
2017-01-29T08:50:18.128Z,946.5
2017-01-29T08:51:26.135Z,946.5
2017-01-29T08:52:34.312Z,946.5
2017-01-29T08:53:42.266Z,946.5
2017-01-29T08:54:50.363Z,946.5
2017-01-29T08:55:58.499Z,946.5
2017-01-29T08:57:06.526Z,946.5
2017-01-29T08:58:14.618Z,946.5
2017-01-29T08:59:22.707Z,946.6
2017-01-29T09:00:30.789Z,946.5
2017-01-29T09:01:38.939Z,946.5
2017-01-29T09:02:47.052Z,946.5
2017-01-29T09:03:55.062Z,946.5
2017-01-29T09:05:03.146Z,946.5
2017-01-29T09:06:11.298Z,946.5
2017-01-29T09:07:19.466Z,946.5
2017-01-29T09:08:27.577Z,946.5
2017-01-29T09:09:35.513Z,946.5
2017-01-29T09:10:43.599Z,946.5
2017-01-29T09:11:51.687Z,946.5
2017-01-29T09:12:59.893Z,946.5
2017-01-29T09:14:07.864Z,946.5
2017-01-29T09:15:15.956Z,946.5
2017-01-29T09:16:24.041Z,946.5
2017-01-29T09:17:32.130Z,946.5
2017-01-29T09:18:40.412Z,946.5
2017-01-29T09:19:48.312Z,946.5
2017-01-29T09:20:56.402Z,946.5
2017-01-29T09:22:04.619Z,946.4
2017-01-29T09:23:12.580Z,946.5
2017-01-29T09:24:20.722Z,946.5
2017-01-29T09:25:28.758Z,946.5
2017-01-29T09:26:36.852Z,946.5
2017-01-29T09:27:44.941Z,946.5
2017-01-29T09:28:53.093Z,946.4
2017-01-29T09:30:01.205Z,946.5
2017-01-29T09:31:09.208Z,946.5
2017-01-29T09:32:17.292Z,946.5
2017-01-29T09:33:25.467Z,946.5
2017-01-29T09:34:33.662Z,946.5
2017-01-29T09:35:41.685Z,946.5
2017-01-29T09:36:49.648Z,946.5
2017-01-29T09:37:57.802Z,946.5
2017-01-29T09:39:05.836Z,946.5
2017-01-29T09:40:14.012Z,946.5
2017-01-29T09:41:22.130Z,946.5
2017-01-29T09:42:30.108Z,946.6
2017-01-29T09:43:38.195Z,946.6
2017-01-29T09:44:46.282Z,946.6
2017-01-29T09:45:54.373Z,946.6
2017-01-29T09:47:02.520Z,946.6
2017-01-29T09:48:10.547Z,946.6
2017-01-29T09:49:18.643Z,946.6
2017-01-29T09:50:26.818Z,946.6
2017-01-29T09:51:34.904Z,946.6
2017-01-29T09:52:43.029Z,946.6
2017-01-29T09:53:51.065Z,946.6
2017-01-29T09:54:59.099Z,946.6
2017-01-29T09:56:07.187Z,946.6
2017-01-29T09:57:15.282Z,946.6
2017-01-29T09:58:23.427Z,946.6
2017-01-29T09:59:31.453Z,946.6
2017-01-29T10:00:39.544Z,946.5
2017-01-29T10:01:47.670Z,946.6
2017-01-29T10:02:55.736Z,946.6
2017-01-29T10:04:03.883Z,946.6
2017-01-29T10:05:11.921Z,946.6
2017-01-29T10:06:20.198Z,946.6
2017-01-29T10:07:28.092Z,946.6
2017-01-29T10:08:36.185Z,946.6
2017-01-29T10:09:44.399Z,946.6
2017-01-29T10:10:52.364Z,946.6
2017-01-29T10:12:00.456Z,946.6
2017-01-29T10:13:08.557Z,946.6
2017-01-29T10:14:16.641Z,946.6
2017-01-29T10:15:24.785Z,946.6
2017-01-29T10:16:32.816Z,946.6
2017-01-29T10:17:40.908Z,946.6
2017-01-29T10:18:49.048Z,946.6
2017-01-29T10:19:57.082Z,946.6
2017-01-29T10:21:05.302Z,946.6
2017-01-29T10:22:13.270Z,946.7
2017-01-29T10:23:21.408Z,946.6
2017-01-29T10:24:29.449Z,946.6
2017-01-29T10:25:37.597Z,946.6
2017-01-29T10:26:45.749Z,946.6
2017-01-29T10:27:53.714Z,946.6
2017-01-29T10:29:01.810Z,946.6
2017-01-29T10:30:09.899Z,946.5
2017-01-29T10:31:17.985Z,946.5
2017-01-29T10:32:26.139Z,946.5
2017-01-29T10:33:34.171Z,946.5
2017-01-29T10:34:42.303Z,946.5
2017-01-29T10:35:50.352Z,946.5
2017-01-29T10:36:58.436Z,946.4
2017-01-29T10:38:06.662Z,946.4
2017-01-29T10:39:14.789Z,946.4
2017-01-29T10:40:22.727Z,946.5
2017-01-29T10:41:30.869Z,946.4
2017-01-29T10:42:38.906Z,946.4
2017-01-29T10:43:47.110Z,946.4
2017-01-29T10:44:55.091Z,946.4
2017-01-29T10:46:03.169Z,946.4
2017-01-29T10:47:11.258Z,946.4
2017-01-29T10:48:19.353Z,946.4
2017-01-29T10:49:27.511Z,946.3
2017-01-29T10:50:35.640Z,946.3
2017-01-29T10:51:43.621Z,946.4
2017-01-29T10:52:51.717Z,946.4
2017-01-29T10:53:59.808Z,946.3
2017-01-29T10:55:08.012Z,946.3
2017-01-29T10:56:15.985Z,946.3
2017-01-29T10:57:24.135Z,946.3
2017-01-29T10:58:32.168Z,946.2
2017-01-29T10:59:40.263Z,946.2
2017-01-29T11:00:48.518Z,946.2
2017-01-29T11:01:56.449Z,946.2
2017-01-29T11:03:04.534Z,946.2
2017-01-29T11:04:12.630Z,946.2
2017-01-29T11:05:20.719Z,946.2
2017-01-29T11:06:28.930Z,946.2
2017-01-29T11:07:36.892Z,946.2
2017-01-29T11:08:44.991Z,946.3
2017-01-29T11:09:53.076Z,946.3
2017-01-29T11:11:01.319Z,946.3
2017-01-29T11:12:09.438Z,946.2
2017-01-29T11:13:17.405Z,946.2
2017-01-29T11:14:25.437Z,946.2
2017-01-29T11:15:33.530Z,946.2
2017-01-29T11:16:41.623Z,946.2
2017-01-29T11:17:49.831Z,946.2
2017-01-29T11:18:57.796Z,946.2
2017-01-29T11:20:05.892Z,946.2
2017-01-29T11:21:13.986Z,946.2
2017-01-29T11:22:22.141Z,946.2
2017-01-29T11:23:30.214Z,946.2
2017-01-29T11:24:38.255Z,946.2
2017-01-29T11:25:46.348Z,946.2
2017-01-29T11:26:54.432Z,946.2
2017-01-29T11:28:02.524Z,946.1
2017-01-29T11:29:10.734Z,946.1
2017-01-29T11:30:18.704Z,946.1
2017-01-29T11:31:26.799Z,946.1
2017-01-29T11:32:34.913Z,946.1
2017-01-29T11:33:42.984Z,946.1
2017-01-29T11:34:51.121Z,946.1
2017-01-29T11:35:59.159Z,946.1
2017-01-29T11:37:07.329Z,946.2
2017-01-29T11:38:15.386Z,946.1
2017-01-29T11:39:23.437Z,946.1
2017-01-29T11:40:31.643Z,946.1
2017-01-29T11:41:39.611Z,946.1
2017-01-29T11:42:47.699Z,946.1
2017-01-29T11:43:55.793Z,946.1
2017-01-29T11:45:03.943Z,946.1
2017-01-29T11:46:12.027Z,946.1
2017-01-29T11:47:20.070Z,946.1
2017-01-29T11:48:28.229Z,946.1
2017-01-29T11:49:36.250Z,946.0
2017-01-29T11:50:44.340Z,946.0
2017-01-29T11:51:52.553Z,946.0
2017-01-29T11:53:00.721Z,946.0
2017-01-29T11:54:08.707Z,945.9
2017-01-29T11:55:16.771Z,945.9
2017-01-29T11:56:24.801Z,945.9
2017-01-29T11:57:32.946Z,945.9
2017-01-29T11:58:40.981Z,945.9
2017-01-29T11:59:49.106Z,945.9
2017-01-29T12:00:57.288Z,945.9
2017-01-29T12:02:05.257Z,945.9
2017-01-29T12:03:13.405Z,945.9
2017-01-29T12:04:21.600Z,945.8
2017-01-29T12:05:29.531Z,945.8
2017-01-29T12:06:37.616Z,945.7
2017-01-29T12:07:45.708Z,945.8
2017-01-29T12:08:53.859Z,945.8
2017-01-29T12:10:01.906Z,945.8
2017-01-29T12:11:10.002Z,945.7
2017-01-29T12:12:18.074Z,945.6
2017-01-29T12:13:26.158Z,945.7
2017-01-29T12:14:34.575Z,945.6
2017-01-29T12:15:42.421Z,945.7
2017-01-29T12:16:50.494Z,945.6
2017-01-29T12:17:58.556Z,945.6
2017-01-29T12:19:06.614Z,945.6
2017-01-29T12:20:14.765Z,945.6
2017-01-29T12:21:22.794Z,945.6
2017-01-29T12:22:30.886Z,945.5
2017-01-29T12:23:38.987Z,945.5
2017-01-29T12:24:47.077Z,945.5
2017-01-29T12:25:55.344Z,945.5
2017-01-29T12:27:03.256Z,945.5
2017-01-29T12:28:11.352Z,945.5
2017-01-29T12:29:19.442Z,945.5
2017-01-29T12:30:27.529Z,945.5
2017-01-29T12:31:35.685Z,945.5
2017-01-29T12:32:43.832Z,945.4
2017-01-29T12:33:51.799Z,945.4
2017-01-29T12:34:59.904Z,945.4
2017-01-29T12:36:08.050Z,945.3
2017-01-29T12:37:16.190Z,945.4
2017-01-29T12:38:24.166Z,945.4
2017-01-29T12:39:32.258Z,945.4
2017-01-29T12:40:40.349Z,945.3
2017-01-29T12:41:48.437Z,945.3
2017-01-29T12:42:56.647Z,945.2
2017-01-29T12:44:04.614Z,945.3
2017-01-29T12:45:12.701Z,945.2
2017-01-29T12:46:20.793Z,945.2
2017-01-29T12:47:28.887Z,945.2
2017-01-29T12:48:37.091Z,945.2
2017-01-29T12:49:45.061Z,945.1
2017-01-29T12:50:53.154Z,945.2
2017-01-29T12:52:01.365Z,945.1
2017-01-29T12:53:09.334Z,945.1
2017-01-29T12:54:17.544Z,945.1
2017-01-29T12:55:25.517Z,945.1
2017-01-29T12:56:33.608Z,945.1
2017-01-29T12:57:41.692Z,945.1
2017-01-29T12:58:49.790Z,945.1
2017-01-29T12:59:57.934Z,945.1
2017-01-29T13:01:05.964Z,945.1
2017-01-29T13:02:14.060Z,945.1
2017-01-29T13:03:22.159Z,945.1
2017-01-29T13:04:30.358Z,945.1
2017-01-29T13:05:38.382Z,945.1
2017-01-29T13:06:46.416Z,945.1
2017-01-29T13:07:54.648Z,945.1
2017-01-29T13:09:02.591Z,945.1
2017-01-29T13:10:10.689Z,945.1
2017-01-29T13:11:18.834Z,945.1
2017-01-29T13:12:26.864Z,945.1
2017-01-29T13:13:34.953Z,945.1
2017-01-29T13:14:43.049Z,945.1
2017-01-29T13:15:51.139Z,945.1
2017-01-29T13:16:59.352Z,945.1
2017-01-29T13:18:07.334Z,945.1
2017-01-29T13:19:15.425Z,945.1
2017-01-29T13:20:23.582Z,945.1
2017-01-29T13:21:31.608Z,945.1
2017-01-29T13:22:39.860Z,945.0
2017-01-29T13:23:48.129Z,945.0
2017-01-29T13:24:55.884Z,945.0
2017-01-29T13:26:03.981Z,945.0
2017-01-29T13:27:12.069Z,945.0
2017-01-29T13:28:20.284Z,945.0
2017-01-29T13:29:28.259Z,945.0
2017-01-29T13:30:36.346Z,944.9
2017-01-29T13:31:44.436Z,945.0
2017-01-29T13:32:52.525Z,944.9
2017-01-29T13:34:00.826Z,945.0
2017-01-29T13:35:08.714Z,945.0
2017-01-29T13:36:16.857Z,945.0
2017-01-29T13:37:25.129Z,945.0
2017-01-29T13:38:32.994Z,945.0
2017-01-29T13:39:41.856Z,945.0
2017-01-29T13:40:49.171Z,945.0
2017-01-29T13:41:57.269Z,945.0
2017-01-29T13:43:05.359Z,945.0
2017-01-29T13:44:13.600Z,945.0
2017-01-29T13:45:21.732Z,945.0
2017-01-29T13:46:29.632Z,944.9
2017-01-29T13:47:37.713Z,945.0
2017-01-29T13:48:46.004Z,944.9
2017-01-29T13:49:53.906Z,944.9
2017-01-29T13:51:02.115Z,944.9
2017-01-29T13:52:10.147Z,944.9
2017-01-29T13:53:18.180Z,944.9
2017-01-29T13:54:26.274Z,944.9
2017-01-29T13:55:34.366Z,944.9
2017-01-29T13:56:42.510Z,944.9
2017-01-29T13:57:50.548Z,944.9
2017-01-29T13:58:58.639Z,944.9
2017-01-29T14:00:06.722Z,944.9
2017-01-29T14:01:14.816Z,944.9
2017-01-29T14:02:23.030Z,944.9
2017-01-29T14:03:31.005Z,944.9
2017-01-29T14:04:39.088Z,944.9
2017-01-29T14:05:47.200Z,944.8
2017-01-29T14:06:55.279Z,944.9
2017-01-29T14:08:03.426Z,944.9
2017-01-29T14:09:11.469Z,944.9
2017-01-29T14:10:19.556Z,944.9
2017-01-29T14:11:27.739Z,944.9
2017-01-29T14:12:35.738Z,944.9
2017-01-29T14:13:43.952Z,944.9
2017-01-29T14:14:51.926Z,944.9
2017-01-29T14:16:00.208Z,944.9
2017-01-29T14:17:08.105Z,944.9
2017-01-29T14:18:16.200Z,944.9
2017-01-29T14:19:24.347Z,944.9
2017-01-29T14:20:32.379Z,944.9
2017-01-29T14:21:40.481Z,944.9
2017-01-29T14:22:48.572Z,944.9
2017-01-29T14:23:56.780Z,944.9
2017-01-29T14:25:04.810Z,944.9
2017-01-29T14:26:12.927Z,944.8
2017-01-29T14:27:20.997Z,944.9
2017-01-29T14:28:29.030Z,944.9
2017-01-29T14:29:37.122Z,944.9
2017-01-29T14:30:45.447Z,944.9
2017-01-29T14:31:53.368Z,944.9
2017-01-29T14:33:01.397Z,944.9
2017-01-29T14:34:09.494Z,944.9
2017-01-29T14:35:17.577Z,944.9
2017-01-29T14:36:25.788Z,944.8